createdAt,value
2024-01-27T00:02:37.256Z,80.12
2024-01-27T00:05:38.741Z,80.14
2024-01-27T00:08:39.933Z,80.17
2024-01-27T00:11:40.881Z,80.20
2024-01-27T00:14:41.872Z,80.22
2024-01-27T00:17:43.019Z,80.13
2024-01-27T00:20:44.125Z,80.21
2024-01-27T00:23:45.211Z,80.25
2024-01-27T00:26:46.510Z,80.57
2024-01-27T00:29:47.546Z,80.84
2024-01-27T00:32:48.603Z,80.90
2024-01-27T00:35:49.760Z,80.92
2024-01-27T00:38:50.779Z,81.02
2024-01-27T00:41:53.294Z,81.01
2024-01-27T00:44:54.314Z,80.85
2024-01-27T00:47:55.731Z,80.92
2024-01-27T00:50:56.752Z,81.03
2024-01-27T00:53:57.793Z,81.10
2024-01-27T00:56:58.736Z,81.14
2024-01-27T00:59:59.816Z,81.38
2024-01-27T01:03:00.998Z,81.36
2024-01-27T01:06:02.030Z,81.29
2024-01-27T01:09:03.094Z,81.25
2024-01-27T01:12:04.887Z,81.17
2024-01-27T01:15:06.541Z,81.09
2024-01-27T01:18:07.667Z,81.19
2024-01-27T01:21:08.757Z,81.45
2024-01-27T01:24:09.795Z,81.65
2024-01-27T01:30:51.669Z,81.97
2024-01-27T01:33:52.736Z,82.10
2024-01-27T01:36:54.948Z,82.38
2024-01-27T01:39:56.125Z,82.34
2024-01-27T01:42:59.797Z,82.30
2024-01-27T01:46:00.957Z,82.11
2024-01-27T01:49:02.765Z,81.96
2024-01-27T01:52:04.571Z,82.18
2024-01-27T01:55:06.161Z,82.37
2024-01-27T01:58:07.193Z,82.67
2024-01-27T02:01:08.762Z,83.06
2024-01-27T02:04:09.789Z,83.39
2024-01-27T02:07:10.939Z,83.66
2024-01-27T02:10:16.742Z,84.10
2024-01-27T02:13:21.995Z,84.55
2024-01-27T02:16:23.031Z,85.56
2024-01-27T02:19:25.057Z,86.04
2024-01-27T02:22:26.243Z,86.23
2024-01-27T02:25:27.222Z,85.95
2024-01-27T02:28:28.192Z,86.02
2024-01-27T02:31:29.380Z,85.99
2024-01-27T02:34:30.551Z,85.78
2024-01-27T02:37:31.905Z,85.82
2024-01-27T02:40:32.874Z,85.52
2024-01-27T02:43:33.862Z,85.27
2024-01-27T02:46:35.037Z,85.25
2024-01-27T02:49:36.439Z,85.22
2024-01-27T02:52:37.782Z,85.27
2024-01-27T02:55:38.755Z,85.72
2024-01-27T02:58:41.750Z,85.82
2024-01-27T03:01:42.750Z,85.82
2024-01-27T03:04:43.803Z,85.55
2024-01-27T03:07:44.992Z,85.58
2024-01-27T03:10:46.223Z,85.71
2024-01-27T03:13:47.199Z,85.78
2024-01-27T03:16:48.109Z,85.44
2024-01-27T03:19:49.913Z,85.21
2024-01-27T03:22:51.017Z,85.25
2024-01-27T03:25:52.145Z,85.20
2024-01-27T03:28:53.144Z,85.01
2024-01-27T03:31:54.093Z,85.08
2024-01-27T03:34:55.080Z,85.02
2024-01-27T03:37:56.284Z,84.91
2024-01-27T03:40:59.167Z,84.98
2024-01-27T03:44:00.114Z,84.80
2024-01-27T03:47:01.093Z,84.91
2024-01-27T03:50:02.153Z,84.87
2024-01-27T03:53:03.223Z,84.66
2024-01-27T03:56:05.289Z,84.69
2024-01-27T03:59:07.267Z,84.59
2024-01-27T04:02:08.312Z,84.60
2024-01-27T04:05:09.285Z,84.59
2024-01-27T04:08:10.283Z,84.59
2024-01-27T04:11:20.438Z,84.49
2024-01-27T04:14:21.329Z,84.38
2024-01-27T04:17:23.262Z,84.24
2024-01-27T04:20:24.459Z,84.44
2024-01-27T04:23:25.386Z,84.24
2024-01-27T04:26:26.505Z,84.08
2024-01-27T04:29:27.433Z,84.11
2024-01-27T04:32:28.654Z,83.93
2024-01-27T04:35:29.638Z,83.93
2024-01-27T04:38:30.627Z,83.83
2024-01-27T04:41:31.843Z,83.78
2024-01-27T04:44:33.943Z,83.68
2024-01-27T04:47:35.104Z,83.60
2024-01-27T04:50:36.449Z,83.63
2024-01-27T04:53:37.413Z,83.43
2024-01-27T04:56:38.902Z,83.45
2024-01-27T04:59:40.077Z,83.36
2024-01-27T05:02:42.347Z,83.52
2024-01-27T05:05:43.970Z,83.50
2024-01-27T05:08:45.531Z,83.30
2024-01-27T05:11:46.587Z,83.37
2024-01-27T05:14:47.634Z,83.47
2024-01-27T05:17:48.697Z,83.17
2024-01-27T05:20:50.289Z,83.09
2024-01-27T05:23:51.299Z,82.89
2024-01-27T05:26:52.467Z,82.85
2024-01-27T05:29:53.444Z,82.92
2024-01-27T05:32:54.545Z,82.64
2024-01-27T05:35:55.629Z,82.62
2024-01-27T05:38:56.670Z,82.61
2024-01-27T05:41:57.655Z,82.54
2024-01-27T05:44:58.772Z,82.44
2024-01-27T05:47:59.947Z,82.37
2024-01-27T05:51:02.624Z,82.41
2024-01-27T05:54:03.953Z,82.42
2024-01-27T05:57:05.413Z,82.30
2024-01-27T06:00:07.018Z,82.24
2024-01-27T06:03:08.064Z,82.25
2024-01-27T06:06:09.320Z,82.51
2024-01-27T06:09:12.175Z,82.62
2024-01-27T06:12:13.384Z,82.35
2024-01-27T06:15:16.178Z,82.40
2024-01-27T06:18:17.270Z,82.38
2024-01-27T06:21:18.753Z,82.52
2024-01-27T06:24:19.838Z,82.74
2024-01-27T06:27:20.937Z,82.78
2024-01-27T06:30:21.932Z,82.65
2024-01-27T06:33:23.018Z,82.40
2024-01-27T06:36:25.289Z,82.22
2024-01-27T06:39:26.595Z,82.37
2024-01-27T06:42:27.742Z,82.59
2024-01-27T06:45:28.749Z,82.68
2024-01-27T06:48:29.852Z,82.77
2024-01-27T06:51:30.924Z,82.86
2024-01-27T06:54:32.122Z,82.53
2024-01-27T06:57:33.557Z,82.49
2024-01-27T07:00:34.631Z,82.55
2024-01-27T07:03:35.676Z,82.68
2024-01-27T07:06:36.748Z,82.56
2024-01-27T07:09:37.780Z,82.51
2024-01-27T07:12:39.188Z,82.43
2024-01-27T07:15:40.197Z,82.36
2024-01-27T07:18:41.511Z,82.33
2024-01-27T07:21:42.743Z,82.36
2024-01-27T07:24:43.972Z,82.42
2024-01-27T07:27:45.379Z,82.26
2024-01-27T07:30:46.596Z,82.12
2024-01-27T07:33:47.811Z,81.93
2024-01-27T07:36:49.866Z,81.80
2024-01-27T07:39:50.838Z,81.69
2024-01-27T07:42:51.957Z,82.02
2024-01-27T07:45:54.253Z,82.02
2024-01-27T07:48:55.242Z,81.91
2024-01-27T07:51:56.322Z,81.58
2024-01-27T07:54:57.209Z,81.48
2024-01-27T07:57:58.728Z,81.40
2024-01-27T08:01:00.092Z,81.32
2024-01-27T08:04:01.206Z,81.21
2024-01-27T08:07:06.749Z,81.00
2024-01-27T08:10:11.547Z,80.58
2024-01-27T08:13:12.582Z,80.09
2024-01-27T08:16:14.864Z,80.34
2024-01-27T08:19:20.649Z,79.95
2024-01-27T08:22:21.804Z,80.01
2024-01-27T08:25:22.753Z,79.91
2024-01-27T08:28:24.917Z,79.83
2024-01-27T08:31:25.952Z,79.45
2024-01-27T08:34:27.223Z,79.06
2024-01-27T08:37:28.310Z,79.12
2024-01-27T08:40:29.279Z,78.92
2024-01-27T08:43:30.176Z,78.95
2024-01-27T08:46:31.197Z,78.74
2024-01-27T08:49:32.268Z,78.73
2024-01-27T08:52:35.686Z,78.66
2024-01-27T08:55:37.956Z,78.75
2024-01-27T08:58:38.904Z,78.97
2024-01-27T09:01:39.917Z,79.13
2024-01-27T09:04:40.944Z,79.22
2024-01-27T09:07:41.931Z,79.03
2024-01-27T09:10:42.892Z,79.01
2024-01-27T09:13:45.873Z,79.02
2024-01-27T09:16:47.614Z,79.14
2024-01-27T09:19:48.926Z,79.25
2024-01-27T09:22:51.210Z,79.34
2024-01-27T09:25:52.222Z,79.26
2024-01-27T09:28:56.107Z,79.29
2024-01-27T09:31:57.198Z,79.27
2024-01-27T09:34:58.905Z,79.32
2024-01-27T09:37:59.918Z,79.20
2024-01-27T09:41:00.893Z,79.10
2024-01-27T09:44:03.424Z,79.07
2024-01-27T09:47:05.902Z,79.11
2024-01-27T09:50:11.563Z,78.84
2024-01-27T09:53:12.877Z,78.64
2024-01-27T09:56:18.476Z,78.82
2024-01-27T09:59:21.617Z,78.93
2024-01-27T10:02:25.625Z,79.12
2024-01-27T10:05:28.372Z,79.10
2024-01-27T10:08:29.367Z,78.86
2024-01-27T10:11:33.774Z,78.81
2024-01-27T10:14:41.227Z,78.53
2024-01-27T10:17:42.216Z,78.42
2024-01-27T10:20:44.278Z,78.33
2024-01-27T10:23:45.506Z,78.49
2024-01-27T10:26:48.279Z,78.52
2024-01-27T10:29:54.825Z,78.26
2024-01-27T10:32:59.656Z,78.51
2024-01-27T10:36:01.043Z,78.55
2024-01-27T10:39:02.026Z,78.62
2024-01-27T10:42:04.519Z,78.71
2024-01-27T10:45:06.096Z,78.83
2024-01-27T10:48:12.857Z,78.64
2024-01-27T10:51:19.170Z,78.95
2024-01-27T10:54:28.066Z,79.00
2024-01-27T10:57:34.161Z,78.97
2024-01-27T11:00:35.621Z,78.81
2024-01-27T11:03:40.685Z,79.02
2024-01-27T11:06:43.836Z,79.30
2024-01-27T11:09:46.005Z,79.38
2024-01-27T11:12:49.541Z,79.35
2024-01-27T11:15:59.081Z,79.17
2024-01-27T11:19:00.445Z,79.16
2024-01-27T11:22:05.296Z,79.42
2024-01-27T11:25:15.245Z,79.79
2024-01-27T11:28:17.429Z,79.96
2024-01-27T11:31:19.944Z,79.89
2024-01-27T11:34:21.501Z,79.82
2024-01-27T11:37:25.749Z,79.71
2024-01-27T11:40:26.737Z,79.78
2024-01-27T11:43:28.418Z,80.09
2024-01-27T11:46:29.582Z,80.14
2024-01-27T11:49:30.905Z,80.02
2024-01-27T11:52:31.975Z,80.17
2024-01-27T11:55:32.980Z,79.95
2024-01-27T11:58:34.201Z,80.14
2024-01-27T12:01:37.200Z,79.95
2024-01-27T12:04:40.266Z,80.34
2024-01-27T12:07:41.405Z,80.30
2024-01-27T12:10:42.364Z,80.45
2024-01-27T12:13:43.349Z,79.78
2024-01-27T12:16:45.051Z,79.47
2024-01-27T12:19:52.726Z,79.44
2024-01-27T12:23:07.131Z,79.23
2024-01-27T12:26:15.238Z,79.26
2024-01-27T12:29:16.254Z,79.45
2024-01-27T12:32:18.484Z,79.58
2024-01-27T12:35:19.661Z,79.60
2024-01-27T12:38:21.048Z,79.30
2024-01-27T12:41:22.104Z,78.97
2024-01-27T12:44:23.111Z,79.18
2024-01-27T12:47:24.219Z,79.24
2024-01-27T12:50:25.354Z,79.09
2024-01-27T12:53:26.913Z,79.11
2024-01-27T12:56:27.892Z,79.07
2024-01-27T12:59:29.135Z,79.14
2024-01-27T13:02:30.243Z,78.97
2024-01-27T13:05:31.222Z,78.67
2024-01-27T13:08:32.531Z,78.79
2024-01-27T13:11:33.792Z,78.88
2024-01-27T13:14:34.830Z,78.56
2024-01-27T13:17:35.823Z,78.55
2024-01-27T13:20:37.593Z,78.39
2024-01-27T13:23:38.643Z,78.52
2024-01-27T13:26:39.686Z,78.41
2024-01-27T13:29:40.635Z,78.24
2024-01-27T13:32:42.194Z,78.64
2024-01-27T13:35:47.083Z,78.58
2024-01-27T13:38:48.057Z,78.69
2024-01-27T13:41:49.075Z,78.62
2024-01-27T13:44:50.049Z,78.77
2024-01-27T13:47:50.999Z,78.34
2024-01-27T13:50:53.511Z,78.27
2024-01-27T13:53:54.488Z,78.55
2024-01-27T13:56:55.571Z,78.61
2024-01-27T13:59:57.201Z,78.69
2024-01-27T14:02:58.326Z,78.66
2024-01-27T14:05:59.445Z,78.60
2024-01-27T14:09:01.366Z,78.76
2024-01-27T14:12:02.444Z,78.65
2024-01-27T14:15:09.135Z,78.77
2024-01-27T14:18:14.577Z,79.07
2024-01-27T14:21:15.583Z,79.16
2024-01-27T14:24:16.595Z,79.00
2024-01-27T14:27:18.714Z,78.78
2024-01-27T14:30:19.757Z,78.98
2024-01-27T14:33:21.466Z,78.90
2024-01-27T14:36:24.100Z,79.15
2024-01-27T14:39:25.106Z,79.40
2024-01-27T14:42:26.129Z,79.30
2024-01-27T14:45:27.218Z,79.37
2024-01-27T14:48:28.448Z,79.54
2024-01-27T14:51:29.587Z,79.65
2024-01-27T14:54:30.592Z,79.68
2024-01-27T14:57:31.703Z,79.83
2024-01-27T15:00:32.820Z,79.80
2024-01-27T15:03:34.279Z,79.92
2024-01-27T15:06:35.703Z,80.06
2024-01-27T15:09:36.751Z,79.96
2024-01-27T15:12:38.217Z,79.90
2024-01-27T15:15:40.211Z,79.84
2024-01-27T15:18:45.102Z,79.79
2024-01-27T15:21:46.484Z,79.95
2024-01-27T15:24:47.475Z,80.19
2024-01-27T15:27:48.739Z,80.21
2024-01-27T15:30:50.086Z,80.37
2024-01-27T15:33:51.493Z,80.31
2024-01-27T15:36:52.738Z,80.43
2024-01-27T15:39:54.005Z,80.58
2024-01-27T15:42:56.307Z,80.64
2024-01-27T15:45:57.400Z,80.69
2024-01-27T15:48:58.514Z,80.67
2024-01-27T15:51:59.659Z,80.79
2024-01-27T15:55:00.633Z,80.60
2024-01-27T15:58:02.240Z,80.83
2024-01-27T16:01:03.539Z,81.05
2024-01-27T16:04:04.585Z,81.08
2024-01-27T16:07:05.604Z,81.22
2024-01-27T16:10:07.088Z,81.47
2024-01-27T16:13:08.158Z,81.73
2024-01-27T16:16:09.182Z,81.67
2024-01-27T16:19:10.436Z,81.57
2024-01-27T16:22:11.499Z,81.87
2024-01-27T16:25:12.431Z,81.93
2024-01-27T16:28:13.477Z,82.20
2024-01-27T16:31:15.186Z,81.98
2024-01-27T16:34:16.268Z,82.03
2024-01-27T16:37:18.447Z,82.07
2024-01-27T16:40:19.904Z,81.96
2024-01-27T16:43:20.874Z,82.25
2024-01-27T16:46:25.225Z,82.31
2024-01-27T16:49:26.553Z,82.43
2024-01-27T16:52:27.808Z,82.41
2024-01-27T16:55:28.803Z,82.67
2024-01-27T16:58:29.808Z,82.64
2024-01-27T17:01:30.747Z,82.89
2024-01-27T17:04:32.340Z,83.20
2024-01-27T17:07:33.547Z,82.85
2024-01-27T17:10:34.574Z,82.94
2024-01-27T17:13:35.540Z,83.00
2024-01-27T17:16:37.812Z,82.92
2024-01-27T17:19:38.887Z,83.24
2024-01-27T17:22:40.515Z,83.52
2024-01-27T17:25:42.645Z,83.59
2024-01-27T17:28:43.869Z,83.49
2024-01-27T17:31:47.554Z,83.52
2024-01-27T17:34:49.566Z,83.66
2024-01-27T17:37:50.571Z,83.85
2024-01-27T17:40:52.875Z,83.95
2024-01-27T17:43:53.831Z,84.01
2024-01-27T17:46:54.790Z,84.04
2024-01-27T17:49:56.211Z,84.02
2024-01-27T17:52:57.294Z,83.98
2024-01-27T17:56:00.985Z,83.79
2024-01-27T17:59:02.021Z,83.93
2024-01-27T18:02:03.115Z,84.11
2024-01-27T18:05:04.304Z,84.21
2024-01-27T18:08:05.954Z,84.07
2024-01-27T18:11:06.976Z,84.10
2024-01-27T18:14:07.975Z,83.96
2024-01-27T18:17:09.149Z,84.01
2024-01-27T18:20:11.310Z,84.36
2024-01-27T18:23:12.394Z,84.37
2024-01-27T18:26:13.478Z,84.31
2024-01-27T18:29:14.474Z,84.30
2024-01-27T18:32:15.488Z,84.18
2024-01-27T18:35:16.660Z,84.02
2024-01-27T18:38:17.839Z,84.13
2024-01-27T18:41:18.860Z,84.18
2024-01-27T18:44:20.842Z,84.18
2024-01-27T18:47:24.993Z,84.07
2024-01-27T18:50:26.532Z,84.13
2024-01-27T18:53:28.139Z,84.24
2024-01-27T18:56:29.192Z,84.15
2024-01-27T18:59:30.142Z,83.92
2024-01-27T19:02:31.609Z,84.02
2024-01-27T19:05:34.123Z,83.86
2024-01-27T19:08:35.416Z,83.68
2024-01-27T19:11:36.589Z,83.82
2024-01-27T19:14:38.157Z,83.76
2024-01-27T19:17:39.228Z,83.71
2024-01-27T19:20:40.331Z,83.66
2024-01-27T19:23:41.285Z,83.60
2024-01-27T19:26:42.597Z,83.65
2024-01-27T19:29:44.099Z,83.67
2024-01-27T19:32:45.592Z,83.60
2024-01-27T19:35:48.347Z,83.67
2024-01-27T19:38:49.323Z,83.32
2024-01-27T19:41:51.812Z,83.21
2024-01-27T19:44:52.761Z,83.11
2024-01-27T19:47:53.829Z,83.30
2024-01-27T19:50:55.379Z,83.17
2024-01-27T19:53:56.389Z,83.31
2024-01-27T19:56:57.356Z,83.06
2024-01-27T19:59:58.665Z,83.03
2024-01-27T20:03:01.653Z,83.03
2024-01-27T20:06:04.810Z,83.16
2024-01-27T20:09:12.440Z,83.45
2024-01-27T20:12:17.508Z,83.51
2024-01-27T20:15:18.814Z,83.72
2024-01-27T20:18:20.485Z,83.96
2024-01-27T20:21:22.869Z,83.97
2024-01-27T20:24:23.854Z,83.93
2024-01-27T20:27:25.065Z,84.23
2024-01-27T20:30:26.073Z,84.41
2024-01-27T20:33:31.645Z,84.68
2024-01-27T20:36:38.629Z,84.15
2024-01-27T20:39:44.417Z,84.00
2024-01-27T20:42:45.555Z,83.89
2024-01-27T20:45:46.577Z,84.02
2024-01-27T20:48:47.841Z,84.09
2024-01-27T20:51:51.503Z,84.09
2024-01-27T20:54:54.529Z,84.06
2024-01-27T20:57:55.847Z,83.98
2024-01-27T21:00:56.916Z,84.18
2024-01-27T23:48:19.640Z,86.01
2024-01-27T23:51:23.411Z,86.16
2024-01-27T23:54:24.535Z,86.23
2024-01-27T23:57:25.545Z,86.01
